sensor_id;sensor_type;location;lat;lon;timestamp;temperature;humidity
14995;DHT22;7593;49.006;8.372;2023-03-13T00:01:37;11.50;99.90
14995;DHT22;7593;49.006;8.372;2023-03-13T00:04:08;11.50;99.90
14995;DHT22;7593;49.006;8.372;2023-03-13T00:06:36;11.50;99.90
14995;DHT22;7593;49.006;8.372;2023-03-13T00:09:06;11.50;99.90
14995;DHT22;7593;49.006;8.372;2023-03-13T00:11:34;11.50;99.90
14995;DHT22;7593;49.006;8.372;2023-03-13T00:14:03;11.50;99.90
14995;DHT22;7593;49.006;8.372;2023-03-13T00:16:30;11.50;99.90
14995;DHT22;7593;49.006;8.372;2023-03-13T00:18:58;11.50;99.90
14995;DHT22;7593;49.006;8.372;2023-03-13T00:21:27;11.60;99.90
14995;DHT22;7593;49.006;8.372;2023-03-13T00:23:59;11.50;99.90
14995;DHT22;7593;49.006;8.372;2023-03-13T00:26:27;11.50;99.90
14995;DHT22;7593;49.006;8.372;2023-03-13T00:28:56;11.50;99.90
14995;DHT22;7593;49.006;8.372;2023-03-13T00:31:24;11.60;99.90
14995;DHT22;7593;49.006;8.372;2023-03-13T00:33:53;11.60;99.90
14995;DHT22;7593;49.006;8.372;2023-03-13T00:36:22;11.60;99.90
14995;DHT22;7593;49.006;8.372;2023-03-13T00:38:49;11.60;99.90
14995;DHT22;7593;49.006;8.372;2023-03-13T00:41:18;11.60;99.90
14995;DHT22;7593;49.006;8.372;2023-03-13T00:43:46;11.60;99.90
14995;DHT22;7593;49.006;8.372;2023-03-13T00:46:16;11.70;99.90
14995;DHT22;7593;49.006;8.372;2023-03-13T00:48:43;11.70;99.90
14995;DHT22;7593;49.006;8.372;2023-03-13T00:51:10;11.80;99.90
14995;DHT22;7593;49.006;8.372;2023-03-13T00:53:37;11.80;99.90
14995;DHT22;7593;49.006;8.372;2023-03-13T00:56:06;11.90;99.90
14995;DHT22;7593;49.006;8.372;2023-03-13T00:58:35;11.90;99.90
14995;DHT22;7593;49.006;8.372;2023-03-13T01:01:09;11.90;99.90
14995;DHT22;7593;49.006;8.372;2023-03-13T01:03:38;11.90;99.90
14995;DHT22;7593;49.006;8.372;2023-03-13T01:06:08;12.00;99.90
14995;DHT22;7593;49.006;8.372;2023-03-13T01:08:35;11.90;99.90
14995;DHT22;7593;49.006;8.372;2023-03-13T01:11:05;12.00;99.90
14995;DHT22;7593;49.006;8.372;2023-03-13T01:13:33;12.00;99.90
14995;DHT22;7593;49.006;8.372;2023-03-13T01:16:01;12.00;99.90
14995;DHT22;7593;49.006;8.372;2023-03-13T01:18:28;12.00;99.90
14995;DHT22;7593;49.006;8.372;2023-03-13T01:20:57;12.00;99.90
14995;DHT22;7593;49.006;8.372;2023-03-13T01:23:24;12.00;99.90
14995;DHT22;7593;49.006;8.372;2023-03-13T01:25:52;12.00;99.90
14995;DHT22;7593;49.006;8.372;2023-03-13T01:28:22;12.00;99.90
14995;DHT22;7593;49.006;8.372;2023-03-13T01:30:49;12.00;99.90
14995;DHT22;7593;49.006;8.372;2023-03-13T01:33:16;12.00;99.90
14995;DHT22;7593;49.006;8.372;2023-03-13T01:35:43;12.00;99.90
14995;DHT22;7593;49.006;8.372;2023-03-13T01:38:11;12.00;99.90
14995;DHT22;7593;49.006;8.372;2023-03-13T01:40:39;12.00;99.90
14995;DHT22;7593;49.006;8.372;2023-03-13T01:43:16;12.00;99.90
14995;DHT22;7593;49.006;8.372;2023-03-13T01:45:57;11.90;99.90
14995;DHT22;7593;49.006;8.372;2023-03-13T01:48:28;11.90;99.90
14995;DHT22;7593;49.006;8.372;2023-03-13T01:51:00;11.80;99.90
14995;DHT22;7593;49.006;8.372;2023-03-13T01:53:33;11.70;99.90
14995;DHT22;7593;49.006;8.372;2023-03-13T01:56:04;11.50;99.90
14995;DHT22;7593;49.006;8.372;2023-03-13T01:58:31;11.30;99.90
14995;DHT22;7593;49.006;8.372;2023-03-13T02:00:59;11.20;99.90
14995;DHT22;7593;49.006;8.372;2023-03-13T02:03:27;11.20;99.90
14995;DHT22;7593;49.006;8.372;2023-03-13T02:05:55;11.30;99.90
14995;DHT22;7593;49.006;8.372;2023-03-13T02:08:25;11.40;99.90
14995;DHT22;7593;49.006;8.372;2023-03-13T02:11:02;11.40;99.90
14995;DHT22;7593;49.006;8.372;2023-03-13T02:13:29;11.40;99.90
14995;DHT22;7593;49.006;8.372;2023-03-13T02:15:57;11.40;99.90
14995;DHT22;7593;49.006;8.372;2023-03-13T02:18:24;11.30;99.90
14995;DHT22;7593;49.006;8.372;2023-03-13T02:20:55;11.10;99.90
14995;DHT22;7593;49.006;8.372;2023-03-13T02:23:28;11.10;99.90
14995;DHT22;7593;49.006;8.372;2023-03-13T02:25:58;11.10;99.90
14995;DHT22;7593;49.006;8.372;2023-03-13T02:28:29;11.20;99.90
14995;DHT22;7593;49.006;8.372;2023-03-13T02:30:58;11.20;99.90
14995;DHT22;7593;49.006;8.372;2023-03-13T02:33:27;11.30;99.90
14995;DHT22;7593;49.006;8.372;2023-03-13T02:35:56;11.30;99.90
14995;DHT22;7593;49.006;8.372;2023-03-13T02:38:25;11.30;99.90
14995;DHT22;7593;49.006;8.372;2023-03-13T02:40:53;11.20;99.90
14995;DHT22;7593;49.006;8.372;2023-03-13T02:43:26;11.20;99.90
14995;DHT22;7593;49.006;8.372;2023-03-13T02:46:07;11.30;99.90
14995;DHT22;7593;49.006;8.372;2023-03-13T02:48:36;11.40;99.90
14995;DHT22;7593;49.006;8.372;2023-03-13T02:51:07;11.40;99.90
14995;DHT22;7593;49.006;8.372;2023-03-13T02:53:37;11.40;99.90
14995;DHT22;7593;49.006;8.372;2023-03-13T02:56:04;11.50;99.90
14995;DHT22;7593;49.006;8.372;2023-03-13T02:58:38;11.50;99.90
14995;DHT22;7593;49.006;8.372;2023-03-13T03:01:06;11.50;99.90
14995;DHT22;7593;49.006;8.372;2023-03-13T03:03:33;11.60;99.90
14995;DHT22;7593;49.006;8.372;2023-03-13T03:06:00;11.60;99.90
14995;DHT22;7593;49.006;8.372;2023-03-13T03:08:27;11.60;99.90
14995;DHT22;7593;49.006;8.372;2023-03-13T03:10:54;11.60;99.90
14995;DHT22;7593;49.006;8.372;2023-03-13T03:13:21;11.50;99.90
14995;DHT22;7593;49.006;8.372;2023-03-13T03:15:49;11.50;99.90
14995;DHT22;7593;49.006;8.372;2023-03-13T03:18:16;11.50;99.90
14995;DHT22;7593;49.006;8.372;2023-03-13T03:20:42;11.50;99.90
14995;DHT22;7593;49.006;8.372;2023-03-13T03:23:09;11.50;99.90
14995;DHT22;7593;49.006;8.372;2023-03-13T03:25:36;11.40;99.90
14995;DHT22;7593;49.006;8.372;2023-03-13T03:28:03;11.40;99.90
14995;DHT22;7593;49.006;8.372;2023-03-13T03:30:30;11.50;99.90
14995;DHT22;7593;49.006;8.372;2023-03-13T03:32:58;11.50;99.90
14995;DHT22;7593;49.006;8.372;2023-03-13T03:35:24;11.50;99.90
14995;DHT22;7593;49.006;8.372;2023-03-13T03:37:51;11.50;99.90
14995;DHT22;7593;49.006;8.372;2023-03-13T03:40:18;11.60;99.90
14995;DHT22;7593;49.006;8.372;2023-03-13T03:42:45;11.60;99.90
14995;DHT22;7593;49.006;8.372;2023-03-13T03:45:12;11.70;99.90
14995;DHT22;7593;49.006;8.372;2023-03-13T03:47:39;11.70;99.90
14995;DHT22;7593;49.006;8.372;2023-03-13T03:50:09;11.70;99.90
14995;DHT22;7593;49.006;8.372;2023-03-13T03:52:36;11.80;99.90
14995;DHT22;7593;49.006;8.372;2023-03-13T03:55:03;11.80;99.90
14995;DHT22;7593;49.006;8.372;2023-03-13T03:57:30;11.80;99.90
14995;DHT22;7593;49.006;8.372;2023-03-13T03:59:57;11.80;99.90
14995;DHT22;7593;49.006;8.372;2023-03-13T04:02:24;11.80;99.90
14995;DHT22;7593;49.006;8.372;2023-03-13T04:04:50;11.80;99.90
14995;DHT22;7593;49.006;8.372;2023-03-13T04:07:19;11.90;99.90
14995;DHT22;7593;49.006;8.372;2023-03-13T04:09:45;11.90;99.90
14995;DHT22;7593;49.006;8.372;2023-03-13T04:12:12;11.90;99.90
14995;DHT22;7593;49.006;8.372;2023-03-13T04:14:39;11.90;99.90
14995;DHT22;7593;49.006;8.372;2023-03-13T04:17:05;12.00;99.90
14995;DHT22;7593;49.006;8.372;2023-03-13T04:19:32;12.00;99.90
14995;DHT22;7593;49.006;8.372;2023-03-13T04:21:59;12.00;99.90
14995;DHT22;7593;49.006;8.372;2023-03-13T04:24:27;12.00;99.90
14995;DHT22;7593;49.006;8.372;2023-03-13T04:26:54;12.00;99.90
14995;DHT22;7593;49.006;8.372;2023-03-13T04:29:20;12.00;99.90
14995;DHT22;7593;49.006;8.372;2023-03-13T04:31:47;12.00;99.90
14995;DHT22;7593;49.006;8.372;2023-03-13T04:34:14;12.10;99.90
14995;DHT22;7593;49.006;8.372;2023-03-13T04:36:41;12.10;99.90
14995;DHT22;7593;49.006;8.372;2023-03-13T04:39:07;12.20;99.90
14995;DHT22;7593;49.006;8.372;2023-03-13T04:41:35;12.20;99.90
14995;DHT22;7593;49.006;8.372;2023-03-13T04:44:02;12.20;99.90
14995;DHT22;7593;49.006;8.372;2023-03-13T04:46:29;12.20;99.90
14995;DHT22;7593;49.006;8.372;2023-03-13T04:48:56;12.30;99.90
14995;DHT22;7593;49.006;8.372;2023-03-13T04:51:23;12.30;99.90
14995;DHT22;7593;49.006;8.372;2023-03-13T04:53:50;12.30;99.90
14995;DHT22;7593;49.006;8.372;2023-03-13T04:56:22;12.30;99.90
14995;DHT22;7593;49.006;8.372;2023-03-13T04:58:50;12.40;99.90
14995;DHT22;7593;49.006;8.372;2023-03-13T05:01:17;12.40;99.90
14995;DHT22;7593;49.006;8.372;2023-03-13T05:03:44;12.40;99.90
14995;DHT22;7593;49.006;8.372;2023-03-13T05:06:11;12.50;99.90
14995;DHT22;7593;49.006;8.372;2023-03-13T05:08:38;12.50;99.90
14995;DHT22;7593;49.006;8.372;2023-03-13T05:11:05;12.50;99.90
14995;DHT22;7593;49.006;8.372;2023-03-13T05:13:31;12.50;99.90
14995;DHT22;7593;49.006;8.372;2023-03-13T05:16:00;12.40;99.90
14995;DHT22;7593;49.006;8.372;2023-03-13T05:18:27;12.20;99.90
14995;DHT22;7593;49.006;8.372;2023-03-13T05:20:54;12.10;99.90
14995;DHT22;7593;49.006;8.372;2023-03-13T05:23:21;11.90;99.90
14995;DHT22;7593;49.006;8.372;2023-03-13T05:25:48;11.80;99.90
14995;DHT22;7593;49.006;8.372;2023-03-13T05:28:14;11.90;99.90
14995;DHT22;7593;49.006;8.372;2023-03-13T05:30:41;12.00;99.90
14995;DHT22;7593;49.006;8.372;2023-03-13T05:33:10;12.00;99.90
14995;DHT22;7593;49.006;8.372;2023-03-13T05:35:36;12.00;99.90
14995;DHT22;7593;49.006;8.372;2023-03-13T05:38:03;12.10;99.90
14995;DHT22;7593;49.006;8.372;2023-03-13T05:40:30;12.20;99.90
14995;DHT22;7593;49.006;8.372;2023-03-13T05:42:57;12.20;99.90
14995;DHT22;7593;49.006;8.372;2023-03-13T05:45:24;12.20;99.90
14995;DHT22;7593;49.006;8.372;2023-03-13T05:47:51;12.30;99.90
14995;DHT22;7593;49.006;8.372;2023-03-13T05:50:19;12.30;99.90
14995;DHT22;7593;49.006;8.372;2023-03-13T05:52:46;12.30;99.90
14995;DHT22;7593;49.006;8.372;2023-03-13T05:55:13;12.30;99.90
14995;DHT22;7593;49.006;8.372;2023-03-13T05:57:43;12.40;99.90
14995;DHT22;7593;49.006;8.372;2023-03-13T06:00:12;12.40;99.90
14995;DHT22;7593;49.006;8.372;2023-03-13T06:02:39;12.40;99.90
14995;DHT22;7593;49.006;8.372;2023-03-13T06:05:06;12.40;99.90
14995;DHT22;7593;49.006;8.372;2023-03-13T06:07:34;12.40;99.90
14995;DHT22;7593;49.006;8.372;2023-03-13T06:10:02;12.40;99.90
14995;DHT22;7593;49.006;8.372;2023-03-13T06:12:30;12.50;99.90
14995;DHT22;7593;49.006;8.372;2023-03-13T06:14:57;12.50;99.90
14995;DHT22;7593;49.006;8.372;2023-03-13T06:17:24;12.50;99.90
14995;DHT22;7593;49.006;8.372;2023-03-13T06:19:50;12.50;99.90
14995;DHT22;7593;49.006;8.372;2023-03-13T06:22:17;12.50;99.90
14995;DHT22;7593;49.006;8.372;2023-03-13T06:24:45;12.60;99.90
14995;DHT22;7593;49.006;8.372;2023-03-13T06:27:14;12.60;99.90
14995;DHT22;7593;49.006;8.372;2023-03-13T06:29:40;12.60;99.90
14995;DHT22;7593;49.006;8.372;2023-03-13T06:32:07;12.60;99.90
14995;DHT22;7593;49.006;8.372;2023-03-13T06:34:34;12.70;99.90
14995;DHT22;7593;49.006;8.372;2023-03-13T06:37:02;12.60;99.90
14995;DHT22;7593;49.006;8.372;2023-03-13T06:39:29;12.60;99.90
14995;DHT22;7593;49.006;8.372;2023-03-13T06:41:57;12.60;99.90
14995;DHT22;7593;49.006;8.372;2023-03-13T06:44:24;12.60;99.90
14995;DHT22;7593;49.006;8.372;2023-03-13T06:46:53;12.60;99.90
14995;DHT22;7593;49.006;8.372;2023-03-13T06:49:20;12.60;99.90
14995;DHT22;7593;49.006;8.372;2023-03-13T06:51:46;12.60;99.90
14995;DHT22;7593;49.006;8.372;2023-03-13T06:54:13;12.60;99.90
14995;DHT22;7593;49.006;8.372;2023-03-13T06:56:40;12.60;99.90
14995;DHT22;7593;49.006;8.372;2023-03-13T06:59:09;12.60;99.90
14995;DHT22;7593;49.006;8.372;2023-03-13T07:01:36;12.60;99.90
14995;DHT22;7593;49.006;8.372;2023-03-13T07:04:02;12.60;99.90
14995;DHT22;7593;49.006;8.372;2023-03-13T07:06:29;12.60;99.90
14995;DHT22;7593;49.006;8.372;2023-03-13T07:08:56;12.60;99.90
14995;DHT22;7593;49.006;8.372;2023-03-13T07:11:23;12.60;99.90
14995;DHT22;7593;49.006;8.372;2023-03-13T07:13:53;12.60;99.90
14995;DHT22;7593;49.006;8.372;2023-03-13T07:16:22;12.60;99.90
14995;DHT22;7593;49.006;8.372;2023-03-13T07:18:49;12.60;99.90
14995;DHT22;7593;49.006;8.372;2023-03-13T07:21:16;12.60;99.90
14995;DHT22;7593;49.006;8.372;2023-03-13T07:23:43;12.60;99.90
14995;DHT22;7593;49.006;8.372;2023-03-13T07:26:11;12.60;99.90
14995;DHT22;7593;49.006;8.372;2023-03-13T07:28:39;12.70;99.90
14995;DHT22;7593;49.006;8.372;2023-03-13T07:31:07;12.70;99.90
14995;DHT22;7593;49.006;8.372;2023-03-13T07:33:35;12.80;99.90
14995;DHT22;7593;49.006;8.372;2023-03-13T07:36:03;12.80;99.90
14995;DHT22;7593;49.006;8.372;2023-03-13T07:38:33;12.90;99.90
14995;DHT22;7593;49.006;8.372;2023-03-13T07:41:00;12.90;99.90
14995;DHT22;7593;49.006;8.372;2023-03-13T07:43:27;12.90;99.90
14995;DHT22;7593;49.006;8.372;2023-03-13T07:45:57;12.90;99.90
14995;DHT22;7593;49.006;8.372;2023-03-13T07:48:27;13.00;99.90
14995;DHT22;7593;49.006;8.372;2023-03-13T07:50:56;13.10;99.90
14995;DHT22;7593;49.006;8.372;2023-03-13T07:53:23;13.10;99.90
14995;DHT22;7593;49.006;8.372;2023-03-13T07:55:54;13.10;99.90
14995;DHT22;7593;49.006;8.372;2023-03-13T07:58:22;13.20;99.90
14995;DHT22;7593;49.006;8.372;2023-03-13T08:00:49;13.20;99.90
14995;DHT22;7593;49.006;8.372;2023-03-13T08:03:16;13.30;99.90
14995;DHT22;7593;49.006;8.372;2023-03-13T08:05:43;13.50;99.90
14995;DHT22;7593;49.006;8.372;2023-03-13T08:08:11;13.50;99.90
14995;DHT22;7593;49.006;8.372;2023-03-13T08:10:38;13.60;99.90
14995;DHT22;7593;49.006;8.372;2023-03-13T08:13:05;13.60;99.90
14995;DHT22;7593;49.006;8.372;2023-03-13T08:15:32;13.60;99.90
14995;DHT22;7593;49.006;8.372;2023-03-13T08:17:58;13.70;99.90
14995;DHT22;7593;49.006;8.372;2023-03-13T08:20:25;13.70;99.90
14995;DHT22;7593;49.006;8.372;2023-03-13T08:22:54;13.80;99.90
14995;DHT22;7593;49.006;8.372;2023-03-13T08:25:22;13.80;99.90
14995;DHT22;7593;49.006;8.372;2023-03-13T08:27:49;13.90;99.90
14995;DHT22;7593;49.006;8.372;2023-03-13T08:30:16;13.90;99.90
14995;DHT22;7593;49.006;8.372;2023-03-13T08:32:43;13.90;99.90
14995;DHT22;7593;49.006;8.372;2023-03-13T08:35:10;13.90;99.90
14995;DHT22;7593;49.006;8.372;2023-03-13T08:37:37;13.90;99.90
14995;DHT22;7593;49.006;8.372;2023-03-13T08:40:04;13.90;99.90
14995;DHT22;7593;49.006;8.372;2023-03-13T08:42:36;13.90;99.90
14995;DHT22;7593;49.006;8.372;2023-03-13T08:45:06;13.90;99.90
14995;DHT22;7593;49.006;8.372;2023-03-13T08:47:33;14.00;99.90
14995;DHT22;7593;49.006;8.372;2023-03-13T08:50:00;14.00;99.90
14995;DHT22;7593;49.006;8.372;2023-03-13T08:52:26;14.00;99.90
14995;DHT22;7593;49.006;8.372;2023-03-13T08:54:53;14.10;99.90
14995;DHT22;7593;49.006;8.372;2023-03-13T08:57:20;14.10;99.90
14995;DHT22;7593;49.006;8.372;2023-03-13T08:59:48;14.20;99.90
14995;DHT22;7593;49.006;8.372;2023-03-13T09:02:15;14.20;99.90
14995;DHT22;7593;49.006;8.372;2023-03-13T09:04:45;14.20;99.90
14995;DHT22;7593;49.006;8.372;2023-03-13T09:07:12;14.20;99.90
14995;DHT22;7593;49.006;8.372;2023-03-13T09:09:39;14.20;99.90
14995;DHT22;7593;49.006;8.372;2023-03-13T09:12:07;14.30;99.90
14995;DHT22;7593;49.006;8.372;2023-03-13T09:14:33;14.40;99.90
14995;DHT22;7593;49.006;8.372;2023-03-13T09:17:02;14.40;99.90
14995;DHT22;7593;49.006;8.372;2023-03-13T09:19:29;14.60;99.90
14995;DHT22;7593;49.006;8.372;2023-03-13T09:21:55;14.60;99.90
14995;DHT22;7593;49.006;8.372;2023-03-13T09:24:22;14.80;99.90
14995;DHT22;7593;49.006;8.372;2023-03-13T09:26:49;14.90;99.90
14995;DHT22;7593;49.006;8.372;2023-03-13T09:29:16;15.20;99.90
14995;DHT22;7593;49.006;8.372;2023-03-13T09:31:43;15.30;99.90
14995;DHT22;7593;49.006;8.372;2023-03-13T09:34:11;15.40;99.90
14995;DHT22;7593;49.006;8.372;2023-03-13T09:36:38;15.50;99.90
14995;DHT22;7593;49.006;8.372;2023-03-13T09:39:05;15.60;99.90
14995;DHT22;7593;49.006;8.372;2023-03-13T09:41:35;15.60;99.90
14995;DHT22;7593;49.006;8.372;2023-03-13T09:44:08;15.70;99.90
14995;DHT22;7593;49.006;8.372;2023-03-13T09:46:40;15.80;99.90
14995;DHT22;7593;49.006;8.372;2023-03-13T09:49:17;15.90;99.90
14995;DHT22;7593;49.006;8.372;2023-03-13T09:51:53;15.80;99.90
14995;DHT22;7593;49.006;8.372;2023-03-13T09:54:26;15.70;99.90
14995;DHT22;7593;49.006;8.372;2023-03-13T09:56:57;15.70;99.90
14995;DHT22;7593;49.006;8.372;2023-03-13T09:59:29;15.60;99.90
14995;DHT22;7593;49.006;8.372;2023-03-13T10:02:03;15.60;99.90
14995;DHT22;7593;49.006;8.372;2023-03-13T10:04:37;15.60;99.90
14995;DHT22;7593;49.006;8.372;2023-03-13T10:07:09;15.60;99.90
14995;DHT22;7593;49.006;8.372;2023-03-13T10:09:37;15.70;99.90
14995;DHT22;7593;49.006;8.372;2023-03-13T10:12:11;15.70;99.90
14995;DHT22;7593;49.006;8.372;2023-03-13T10:14:42;15.70;99.90
14995;DHT22;7593;49.006;8.372;2023-03-13T10:17:19;15.80;99.90
14995;DHT22;7593;49.006;8.372;2023-03-13T10:19:59;15.80;99.90
14995;DHT22;7593;49.006;8.372;2023-03-13T10:22:28;15.90;99.90
14995;DHT22;7593;49.006;8.372;2023-03-13T10:24:58;16.00;99.90
14995;DHT22;7593;49.006;8.372;2023-03-13T10:27:25;16.10;99.90
14995;DHT22;7593;49.006;8.372;2023-03-13T10:29:52;16.10;99.90
14995;DHT22;7593;49.006;8.372;2023-03-13T10:32:19;16.10;99.90
14995;DHT22;7593;49.006;8.372;2023-03-13T10:34:57;16.10;99.90
14995;DHT22;7593;49.006;8.372;2023-03-13T10:37:27;16.10;99.90
14995;DHT22;7593;49.006;8.372;2023-03-13T10:40:11;16.10;99.90
14995;DHT22;7593;49.006;8.372;2023-03-13T10:42:42;16.10;99.90
14995;DHT22;7593;49.006;8.372;2023-03-13T10:45:13;16.00;99.90
14995;DHT22;7593;49.006;8.372;2023-03-13T10:47:41;16.20;99.90
14995;DHT22;7593;49.006;8.372;2023-03-13T10:50:17;16.50;99.90
14995;DHT22;7593;49.006;8.372;2023-03-13T10:52:45;16.90;99.90
14995;DHT22;7593;49.006;8.372;2023-03-13T10:55:16;17.10;99.90
14995;DHT22;7593;49.006;8.372;2023-03-13T10:57:56;17.40;99.90
14995;DHT22;7593;49.006;8.372;2023-03-13T11:00:29;17.60;99.90
14995;DHT22;7593;49.006;8.372;2023-03-13T11:02:58;17.90;99.90
14995;DHT22;7593;49.006;8.372;2023-03-13T11:05:55;18.20;99.90
14995;DHT22;7593;49.006;8.372;2023-03-13T11:08:24;18.40;99.90
14995;DHT22;7593;49.006;8.372;2023-03-13T11:10:54;18.70;99.90
14995;DHT22;7593;49.006;8.372;2023-03-13T11:13:43;19.00;99.90
14995;DHT22;7593;49.006;8.372;2023-03-13T11:16:16;19.20;99.90
14995;DHT22;7593;49.006;8.372;2023-03-13T11:19:07;19.40;99.90
14995;DHT22;7593;49.006;8.372;2023-03-13T11:21:45;19.60;99.90
14995;DHT22;7593;49.006;8.372;2023-03-13T11:24:20;19.80;99.90
14995;DHT22;7593;49.006;8.372;2023-03-13T11:26:55;20.00;99.90
14995;DHT22;7593;49.006;8.372;2023-03-13T11:29:29;20.20;99.90
14995;DHT22;7593;49.006;8.372;2023-03-13T11:32:03;20.40;99.90
14995;DHT22;7593;49.006;8.372;2023-03-13T11:34:39;20.50;99.90
14995;DHT22;7593;49.006;8.372;2023-03-13T11:37:11;20.40;99.90
14995;DHT22;7593;49.006;8.372;2023-03-13T11:39:49;20.50;99.90
14995;DHT22;7593;49.006;8.372;2023-03-13T11:42:49;20.80;99.90
14995;DHT22;7593;49.006;8.372;2023-03-13T11:45:38;20.70;99.90
14995;DHT22;7593;49.006;8.372;2023-03-13T11:48:19;20.70;99.90
14995;DHT22;7593;49.006;8.372;2023-03-13T11:50:53;20.70;99.90
14995;DHT22;7593;49.006;8.372;2023-03-13T11:53:37;20.50;99.90
14995;DHT22;7593;49.006;8.372;2023-03-13T11:56:11;20.50;99.90
14995;DHT22;7593;49.006;8.372;2023-03-13T11:59:03;20.40;99.90
14995;DHT22;7593;49.006;8.372;2023-03-13T12:01:37;20.70;99.90
14995;DHT22;7593;49.006;8.372;2023-03-13T12:04:11;21.00;99.90
14995;DHT22;7593;49.006;8.372;2023-03-13T12:06:43;21.10;99.90
14995;DHT22;7593;49.006;8.372;2023-03-13T12:09:15;21.00;99.90
14995;DHT22;7593;49.006;8.372;2023-03-13T12:11:46;20.90;99.90
14995;DHT22;7593;49.006;8.372;2023-03-13T12:14:21;20.50;99.90
14995;DHT22;7593;49.006;8.372;2023-03-13T12:16:53;20.40;99.90
14995;DHT22;7593;49.006;8.372;2023-03-13T12:19:27;20.40;99.90
14995;DHT22;7593;49.006;8.372;2023-03-13T12:21:57;20.40;99.90
14995;DHT22;7593;49.006;8.372;2023-03-13T12:24:33;20.40;99.90
14995;DHT22;7593;49.006;8.372;2023-03-13T12:27:04;20.40;99.90
14995;DHT22;7593;49.006;8.372;2023-03-13T12:29:43;20.50;99.90
14995;DHT22;7593;49.006;8.372;2023-03-13T12:32:13;20.40;99.90
14995;DHT22;7593;49.006;8.372;2023-03-13T12:34:54;20.40;99.90
14995;DHT22;7593;49.006;8.372;2023-03-13T12:37:27;20.40;99.90
14995;DHT22;7593;49.006;8.372;2023-03-13T12:40:00;20.60;99.90
14995;DHT22;7593;49.006;8.372;2023-03-13T12:42:40;21.00;99.90
14995;DHT22;7593;49.006;8.372;2023-03-13T12:45:15;21.30;99.90
14995;DHT22;7593;49.006;8.372;2023-03-13T12:48:12;21.40;99.90
14995;DHT22;7593;49.006;8.372;2023-03-13T12:50:50;21.50;99.90
14995;DHT22;7593;49.006;8.372;2023-03-13T12:53:42;21.70;99.90
14995;DHT22;7593;49.006;8.372;2023-03-13T12:56:31;21.80;99.90
14995;DHT22;7593;49.006;8.372;2023-03-13T12:59:03;22.00;99.90
14995;DHT22;7593;49.006;8.372;2023-03-13T13:01:34;22.10;99.90
14995;DHT22;7593;49.006;8.372;2023-03-13T13:04:05;21.80;99.90
14995;DHT22;7593;49.006;8.372;2023-03-13T13:06:51;21.60;99.90
14995;DHT22;7593;49.006;8.372;2023-03-13T13:09:22;21.40;99.90
14995;DHT22;7593;49.006;8.372;2023-03-13T13:11:51;21.40;99.90
14995;DHT22;7593;49.006;8.372;2023-03-13T13:15:00;21.30;99.90
14995;DHT22;7593;49.006;8.372;2023-03-13T13:17:39;21.40;99.90
14995;DHT22;7593;49.006;8.372;2023-03-13T13:20:37;21.40;99.90
14995;DHT22;7593;49.006;8.372;2023-03-13T13:23:24;21.60;99.90
14995;DHT22;7593;49.006;8.372;2023-03-13T13:25:52;21.70;99.90
14995;DHT22;7593;49.006;8.372;2023-03-13T13:28:32;22.10;99.90
14995;DHT22;7593;49.006;8.372;2023-03-13T13:30:59;22.50;99.90
14995;DHT22;7593;49.006;8.372;2023-03-13T13:33:37;22.90;99.90
14995;DHT22;7593;49.006;8.372;2023-03-13T13:36:27;23.20;99.90
14995;DHT22;7593;49.006;8.372;2023-03-13T13:38:56;23.50;99.90
14995;DHT22;7593;49.006;8.372;2023-03-13T13:41:26;23.60;99.90
14995;DHT22;7593;49.006;8.372;2023-03-13T13:44:28;23.80;99.90
14995;DHT22;7593;49.006;8.372;2023-03-13T13:46:57;23.80;99.90
14995;DHT22;7593;49.006;8.372;2023-03-13T13:49:50;24.00;99.90
14995;DHT22;7593;49.006;8.372;2023-03-13T13:52:36;24.00;99.90
14995;DHT22;7593;49.006;8.372;2023-03-13T13:58:03;24.00;99.90
14995;DHT22;7593;49.006;8.372;2023-03-13T14:00:38;23.90;99.90
14995;DHT22;7593;49.006;8.372;2023-03-13T14:03:19;24.30;99.90
14995;DHT22;7593;49.006;8.372;2023-03-13T14:05:49;24.50;99.90
14995;DHT22;7593;49.006;8.372;2023-03-13T14:08:20;24.20;99.90
14995;DHT22;7593;49.006;8.372;2023-03-13T14:10:53;24.00;99.90
14995;DHT22;7593;49.006;8.372;2023-03-13T14:13:29;24.40;99.90
14995;DHT22;7593;49.006;8.372;2023-03-13T14:16:16;24.40;99.90
14995;DHT22;7593;49.006;8.372;2023-03-13T14:18:43;24.00;99.90
14995;DHT22;7593;49.006;8.372;2023-03-13T14:21:10;23.80;99.90
14995;DHT22;7593;49.006;8.372;2023-03-13T14:23:40;23.70;99.90
14995;DHT22;7593;49.006;8.372;2023-03-13T14:26:15;23.80;99.90
14995;DHT22;7593;49.006;8.372;2023-03-13T14:28:45;24.40;99.90
14995;DHT22;7593;49.006;8.372;2023-03-13T14:31:26;25.10;99.90
14995;DHT22;7593;49.006;8.372;2023-03-13T14:33:55;25.80;99.90
14995;DHT22;7593;49.006;8.372;2023-03-13T14:36:22;25.90;99.90
14995;DHT22;7593;49.006;8.372;2023-03-13T14:38:54;25.70;99.90
14995;DHT22;7593;49.006;8.372;2023-03-13T14:41:40;25.40;99.90
14995;DHT22;7593;49.006;8.372;2023-03-13T14:44:14;25.30;99.90
14995;DHT22;7593;49.006;8.372;2023-03-13T14:46:44;25.40;99.90
14995;DHT22;7593;49.006;8.372;2023-03-13T14:49:17;25.20;99.90
14995;DHT22;7593;49.006;8.372;2023-03-13T14:51:45;25.10;99.90
14995;DHT22;7593;49.006;8.372;2023-03-13T14:54:28;24.70;99.90
14995;DHT22;7593;49.006;8.372;2023-03-13T14:57:12;24.70;99.90
14995;DHT22;7593;49.006;8.372;2023-03-13T14:59:40;24.60;99.90
14995;DHT22;7593;49.006;8.372;2023-03-13T15:02:15;24.90;99.90
14995;DHT22;7593;49.006;8.372;2023-03-13T15:04:52;25.30;99.90
14995;DHT22;7593;49.006;8.372;2023-03-13T15:07:20;25.40;99.90
14995;DHT22;7593;49.006;8.372;2023-03-13T15:09:48;25.20;99.90
14995;DHT22;7593;49.006;8.372;2023-03-13T15:12:17;25.50;99.90
14995;DHT22;7593;49.006;8.372;2023-03-13T15:14:46;25.40;99.90
14995;DHT22;7593;49.006;8.372;2023-03-13T15:17:18;25.40;99.90
14995;DHT22;7593;49.006;8.372;2023-03-13T15:19:49;24.90;99.90
14995;DHT22;7593;49.006;8.372;2023-03-13T15:22:17;24.90;99.90
14995;DHT22;7593;49.006;8.372;2023-03-13T15:24:45;24.90;99.90
14995;DHT22;7593;49.006;8.372;2023-03-13T15:27:17;24.60;99.90
14995;DHT22;7593;49.006;8.372;2023-03-13T15:29:44;24.80;99.90
14995;DHT22;7593;49.006;8.372;2023-03-13T15:32:18;24.80;99.90
14995;DHT22;7593;49.006;8.372;2023-03-13T15:34:47;24.70;99.90
14995;DHT22;7593;49.006;8.372;2023-03-13T15:37:14;24.70;99.90
14995;DHT22;7593;49.006;8.372;2023-03-13T15:39:41;24.60;99.90
14995;DHT22;7593;49.006;8.372;2023-03-13T15:42:07;24.60;99.90
14995;DHT22;7593;49.006;8.372;2023-03-13T15:44:35;24.70;99.90
14995;DHT22;7593;49.006;8.372;2023-03-13T15:47:01;24.50;99.90
14995;DHT22;7593;49.006;8.372;2023-03-13T15:49:29;24.60;99.90
14995;DHT22;7593;49.006;8.372;2023-03-13T15:51:56;24.70;99.90
14995;DHT22;7593;49.006;8.372;2023-03-13T15:54:23;24.90;99.90
14995;DHT22;7593;49.006;8.372;2023-03-13T15:56:50;24.60;99.90
14995;DHT22;7593;49.006;8.372;2023-03-13T15:59:17;24.60;99.90
14995;DHT22;7593;49.006;8.372;2023-03-13T16:01:44;24.20;99.90
14995;DHT22;7593;49.006;8.372;2023-03-13T16:04:13;24.00;99.90
14995;DHT22;7593;49.006;8.372;2023-03-13T16:06:41;23.70;99.90
14995;DHT22;7593;49.006;8.372;2023-03-13T16:09:09;23.40;99.90